createdAt,value
2022-09-16T00:01:50.756Z,12.04
2022-09-16T00:05:54.859Z,12.00
2022-09-16T00:09:57.713Z,12.00
2022-09-16T00:14:02.175Z,11.97
2022-09-16T00:18:05.124Z,11.96
2022-09-16T00:22:08.013Z,11.96
2022-09-16T00:26:10.708Z,12.00
2022-09-16T00:30:14.970Z,12.09
2022-09-16T00:34:17.765Z,12.09
2022-09-16T00:38:20.782Z,12.18
2022-09-16T00:42:23.594Z,12.29
2022-09-16T00:46:37.009Z,12.40
2022-09-16T00:50:44.793Z,12.46
2022-09-16T00:54:48.375Z,12.52
2022-09-16T00:58:56.279Z,12.59
2022-09-16T01:03:00.384Z,12.64
2022-09-16T01:07:03.241Z,12.68
2022-09-16T01:11:06.378Z,12.68
2022-09-16T01:15:11.091Z,12.60
2022-09-16T01:19:31.181Z,12.55
2022-09-16T01:24:05.339Z,12.51
2022-09-16T01:28:39.214Z,12.57
2022-09-16T01:32:55.179Z,12.62
2022-09-16T01:37:06.236Z,12.60
2022-09-16T01:41:17.173Z,12.55
2022-09-16T01:45:28.459Z,12.51
2022-09-16T01:49:43.506Z,12.54
2022-09-16T01:53:53.892Z,12.50
2022-09-16T01:58:02.799Z,12.49
2022-09-16T02:02:12.258Z,12.41
2022-09-16T02:06:22.039Z,12.32
2022-09-16T02:10:29.322Z,12.27
2022-09-16T02:14:34.758Z,12.21
2022-09-16T02:18:42.142Z,12.11
2022-09-16T02:22:49.648Z,12.00
2022-09-16T02:26:55.525Z,11.95
2022-09-16T02:31:01.469Z,11.98
2022-09-16T02:35:06.547Z,11.91
2022-09-16T02:39:15.890Z,11.92
2022-09-16T02:43:18.971Z,11.88
2022-09-16T02:47:30.509Z,11.90
2022-09-16T02:51:43.692Z,11.97
2022-09-16T02:55:54.707Z,12.00
2022-09-16T02:59:58.135Z,12.05
2022-09-16T03:04:00.849Z,12.04
2022-09-16T03:08:06.894Z,12.02
2022-09-16T03:12:23.907Z,11.94
2022-09-16T03:16:37.723Z,11.88
2022-09-16T03:20:52.271Z,11.88
2022-09-16T03:25:06.386Z,11.80
2022-09-16T03:29:19.137Z,11.69
2022-09-16T03:33:28.391Z,11.66
2022-09-16T03:37:34.573Z,11.64
2022-09-16T03:41:38.022Z,11.68
2022-09-16T03:45:43.035Z,11.66
2022-09-16T03:49:45.710Z,11.64
2022-09-16T03:53:48.563Z,11.62
2022-09-16T03:57:51.276Z,11.60
2022-09-16T04:01:56.260Z,11.54
2022-09-16T04:05:59.638Z,11.56
2022-09-16T04:10:02.861Z,11.56
2022-09-16T04:14:05.903Z,11.68
2022-09-16T04:18:09.993Z,11.76
2022-09-16T04:22:12.718Z,11.81
2022-09-16T04:26:15.873Z,11.85
2022-09-16T04:30:20.494Z,11.88
2022-09-16T04:34:24.744Z,11.87
2022-09-16T04:38:27.730Z,11.83
2022-09-16T04:42:30.489Z,11.81
2022-09-16T04:46:33.812Z,11.77
2022-09-16T04:50:38.018Z,11.74
2022-09-16T04:54:40.846Z,11.75
2022-09-16T04:58:44.440Z,11.76
2022-09-16T05:02:47.380Z,11.76
2022-09-16T05:06:51.541Z,11.73
2022-09-16T05:10:54.309Z,11.79
2022-09-16T05:14:57.054Z,11.83
2022-09-16T05:19:05.182Z,11.79
2022-09-16T05:23:10.403Z,11.84
2022-09-16T05:27:13.408Z,11.86
2022-09-16T05:31:18.115Z,11.88
2022-09-16T05:35:20.916Z,11.86
2022-09-16T05:39:26.284Z,11.87
2022-09-16T05:43:30.989Z,11.87
2022-09-16T05:47:33.834Z,11.85
2022-09-16T05:51:38.413Z,11.81
2022-09-16T05:55:42.608Z,11.85
2022-09-16T05:59:45.360Z,11.81
2022-09-16T06:03:49.757Z,11.77
2022-09-16T06:07:52.607Z,11.72
2022-09-16T06:12:01.642Z,11.69
2022-09-16T06:16:06.817Z,11.77
2022-09-16T06:20:14.224Z,11.89
2022-09-16T06:24:18.754Z,12.14
2022-09-16T06:28:23.043Z,12.32
2022-09-16T06:32:25.912Z,12.45
2022-09-16T06:36:30.953Z,12.48
2022-09-16T06:40:33.829Z,12.54
2022-09-16T06:44:37.916Z,12.59
2022-09-16T06:48:42.403Z,12.61
2022-09-16T06:52:45.246Z,12.65
2022-09-16T06:56:48.026Z,12.67
2022-09-16T07:00:52.329Z,12.74
2022-09-16T07:04:55.259Z,12.90
2022-09-16T07:08:58.259Z,13.08
2022-09-16T07:13:01.107Z,13.13
2022-09-16T07:17:05.853Z,13.21
2022-09-16T07:21:11.132Z,13.32
2022-09-16T07:25:13.981Z,13.43
2022-09-16T07:29:18.510Z,13.48
2022-09-16T07:33:22.723Z,13.46
2022-09-16T07:37:25.664Z,13.75
2022-09-16T07:41:30.348Z,14.24
2022-09-16T07:45:33.589Z,14.24
2022-09-16T07:49:37.855Z,14.39
2022-09-16T07:53:41.080Z,14.29
2022-09-16T07:57:43.915Z,14.36
2022-09-16T08:01:47.324Z,13.95
2022-09-16T08:05:51.836Z,14.45
2022-09-16T08:09:54.678Z,14.26
2022-09-16T08:13:59.781Z,14.52
2022-09-16T08:18:03.142Z,15.27
2022-09-16T08:22:07.218Z,16.71
2022-09-16T08:26:11.686Z,17.63
2022-09-16T08:30:15.893Z,16.71
2022-09-16T08:34:19.622Z,16.46
2022-09-16T08:38:23.908Z,15.79
2022-09-16T08:42:35.719Z,15.55
2022-09-16T08:46:47.605Z,14.82
2022-09-16T08:50:51.383Z,14.87
2022-09-16T08:54:59.639Z,15.22
2022-09-16T08:59:04.691Z,15.15
2022-09-16T09:03:17.725Z,15.73
2022-09-16T09:07:33.958Z,17.30
2022-09-16T09:11:46.406Z,17.38
2022-09-16T09:15:58.543Z,17.24
2022-09-16T09:20:09.478Z,16.86
2022-09-16T09:24:36.459Z,16.51
2022-09-16T09:28:54.495Z,16.35
2022-09-16T09:33:28.021Z,16.53
2022-09-16T09:37:49.199Z,16.45
2022-09-16T09:41:55.911Z,17.56
2022-09-16T09:46:04.520Z,16.52
2022-09-16T09:50:17.476Z,17.35
2022-09-16T09:54:29.852Z,18.09
2022-09-16T09:58:37.460Z,18.60
2022-09-16T10:02:48.868Z,16.94
2022-09-16T10:06:56.012Z,17.28
2022-09-16T10:11:00.899Z,16.53
2022-09-16T10:15:04.529Z,15.90
2022-09-16T10:19:18.394Z,15.81
2022-09-16T10:23:29.753Z,15.92
2022-09-16T10:27:36.208Z,17.92
2022-09-16T10:31:42.694Z,18.67
2022-09-16T10:35:57.089Z,16.30
2022-09-16T10:39:59.939Z,18.21
2022-09-16T10:44:05.197Z,16.79
2022-09-16T10:48:14.206Z,17.19
2022-09-16T10:52:20.334Z,17.02
2022-09-16T10:56:26.471Z,16.55
2022-09-16T11:00:36.946Z,16.70
2022-09-16T11:04:57.110Z,16.39
2022-09-16T11:09:11.701Z,16.76
2022-09-16T11:13:28.823Z,16.08
2022-09-16T11:17:45.686Z,16.27
2022-09-16T11:22:02.853Z,15.56
2022-09-16T11:26:14.868Z,15.04
2022-09-16T11:30:20.337Z,13.43
2022-09-16T11:34:39.577Z,12.82
2022-09-16T11:38:51.079Z,12.53
2022-09-16T11:43:02.849Z,12.15
2022-09-16T11:47:18.186Z,12.26
2022-09-16T11:51:31.712Z,12.25
2022-09-16T11:55:47.451Z,12.00
2022-09-16T11:59:56.549Z,11.96
2022-09-16T12:04:06.252Z,11.88
2022-09-16T12:08:22.832Z,11.83
2022-09-16T12:12:33.247Z,11.61
2022-09-16T12:16:41.976Z,11.26
2022-09-16T12:20:48.260Z,11.07
2022-09-16T12:24:59.550Z,11.11
2022-09-16T12:29:08.182Z,11.27
2022-09-16T12:33:18.458Z,11.23
2022-09-16T12:37:35.527Z,11.28
2022-09-16T12:41:56.623Z,11.43
2022-09-16T12:46:23.301Z,11.46
2022-09-16T12:50:51.307Z,11.65
2022-09-16T12:55:38.184Z,11.86
2022-09-16T13:00:06.683Z,12.32
2022-09-16T13:04:15.686Z,13.05
2022-09-16T13:08:25.148Z,14.13
2022-09-16T13:12:41.031Z,15.19
2022-09-16T13:16:54.768Z,15.03
2022-09-16T13:21:03.934Z,16.27
2022-09-16T13:25:21.618Z,16.96
2022-09-16T13:29:39.592Z,17.33
2022-09-16T13:33:44.116Z,17.80
2022-09-16T13:37:47.765Z,16.09
2022-09-16T13:41:51.896Z,13.97
2022-09-16T13:46:03.385Z,13.18
2022-09-16T13:50:13.693Z,12.66
2022-09-16T13:54:27.909Z,12.38
2022-09-16T13:58:38.393Z,12.45
2022-09-16T14:03:02.658Z,12.74
2022-09-16T14:07:21.949Z,12.85
2022-09-16T14:11:33.537Z,12.89
2022-09-16T14:15:42.333Z,12.91
2022-09-16T14:19:48.323Z,13.09
2022-09-16T14:23:51.347Z,13.39
2022-09-16T14:27:55.421Z,13.39
2022-09-16T14:32:00.250Z,13.35
2022-09-16T14:36:11.882Z,12.79
2022-09-16T14:40:16.749Z,12.78
2022-09-16T14:44:25.965Z,12.56
2022-09-16T14:48:34.975Z,12.40
2022-09-16T14:52:37.841Z,12.17
2022-09-16T14:56:40.708Z,12.00
2022-09-16T15:00:48.199Z,12.06
2022-09-16T15:04:57.318Z,12.40
2022-09-16T15:09:04.375Z,12.48
2022-09-16T15:13:12.068Z,12.49
2022-09-16T15:17:20.127Z,12.66
2022-09-16T15:21:27.978Z,13.43
2022-09-16T15:25:34.418Z,14.93
2022-09-16T15:29:49.409Z,15.47
2022-09-16T15:33:53.878Z,16.32
2022-09-16T15:37:58.055Z,16.57
2022-09-16T15:42:11.340Z,16.25
2022-09-16T15:46:18.250Z,16.38
2022-09-16T15:50:23.479Z,16.22
2022-09-16T15:54:32.526Z,16.43
2022-09-16T15:58:42.042Z,16.23
2022-09-16T16:02:49.612Z,16.55
2022-09-16T16:06:55.907Z,16.65
2022-09-16T16:11:09.668Z,16.55
2022-09-16T16:15:12.950Z,16.61
2022-09-16T16:19:15.976Z,15.61
2022-09-16T16:23:20.051Z,16.16
2022-09-16T16:27:24.227Z,16.26
2022-09-16T16:31:27.017Z,15.88
2022-09-16T16:35:29.971Z,16.04
2022-09-16T16:39:33.154Z,15.07
2022-09-16T16:43:37.478Z,15.79
2022-09-16T16:47:40.436Z,15.43
2022-09-16T16:51:43.255Z,15.38
2022-09-16T16:55:46.021Z,14.92
2022-09-16T16:59:50.259Z,14.69
2022-09-16T17:03:53.435Z,13.75
2022-09-16T17:07:56.445Z,13.28
2022-09-16T17:12:00.652Z,13.08
2022-09-16T17:16:05.208Z,13.23
2022-09-16T17:20:09.284Z,13.11
2022-09-16T17:24:12.734Z,12.76
2022-09-16T17:28:15.563Z,12.57
2022-09-16T17:32:19.890Z,12.45
2022-09-16T17:36:24.561Z,12.38
2022-09-16T17:40:27.895Z,12.22
2022-09-16T17:44:30.719Z,12.14
2022-09-16T17:48:36.420Z,12.06
2022-09-16T17:52:39.237Z,12.05
2022-09-16T17:56:42.908Z,11.99
2022-09-16T18:00:46.164Z,11.93
2022-09-16T18:04:50.398Z,11.89
2022-09-16T18:08:53.831Z,11.75
2022-09-16T18:12:58.145Z,11.72
2022-09-16T18:17:01.133Z,11.66
2022-09-16T18:21:06.443Z,11.63
2022-09-16T18:25:10.276Z,11.56
2022-09-16T18:29:14.384Z,11.54
2022-09-16T18:33:17.057Z,11.44
2022-09-16T18:37:21.283Z,11.34
2022-09-16T18:41:25.527Z,11.26
2022-09-16T18:45:28.629Z,11.22
2022-09-16T18:49:31.415Z,11.16
2022-09-16T18:53:35.685Z,11.03
2022-09-16T18:57:38.398Z,11.00
2022-09-16T19:01:42.552Z,10.98
2022-09-16T19:05:56.011Z,10.91
2022-09-16T19:10:00.103Z,10.86
2022-09-16T19:14:03.181Z,10.78
2022-09-16T19:18:06.115Z,10.69
2022-09-16T19:22:08.952Z,10.65
2022-09-16T19:26:13.600Z,10.62
2022-09-16T19:30:16.986Z,10.61
2022-09-16T19:34:20.723Z,10.61
2022-09-16T19:38:23.949Z,10.58
2022-09-16T19:42:28.286Z,10.53
2022-09-16T19:46:34.409Z,10.47
2022-09-16T19:50:37.127Z,10.42
2022-09-16T19:54:39.885Z,10.34
2022-09-16T19:58:44.099Z,10.30
2022-09-16T20:02:46.898Z,10.23
2022-09-16T20:06:50.298Z,10.28
2022-09-16T20:10:53.013Z,10.21
2022-09-16T20:14:57.195Z,10.16
2022-09-16T20:19:00.086Z,10.10
2022-09-16T20:23:02.775Z,10.07
2022-09-16T20:27:05.770Z,10.06
2022-09-16T20:31:11.113Z,10.03
2022-09-16T20:35:14.166Z,9.97
2022-09-16T20:39:17.161Z,9.96
2022-09-16T20:43:20.037Z,9.91
2022-09-16T20:47:26.941Z,9.89
2022-09-16T20:51:32.289Z,9.93
2022-09-16T20:55:35.138Z,9.88
2022-09-16T20:59:38.100Z,9.84
2022-09-16T21:03:43.260Z,9.81
2022-09-16T21:07:45.941Z,9.85
2022-09-16T21:11:49.610Z,9.89
2022-09-16T21:15:56.555Z,9.95
2022-09-16T21:20:00.659Z,9.88
2022-09-16T21:24:03.795Z,9.86
2022-09-16T21:28:08.722Z,9.87
2022-09-16T21:32:11.563Z,9.90
2022-09-16T21:36:15.654Z,9.86
2022-09-16T21:40:18.553Z,9.84
2022-09-16T21:44:21.544Z,9.74
2022-09-16T21:48:25.351Z,9.76
2022-09-16T21:52:29.569Z,9.76
2022-09-16T21:56:32.682Z,9.73
2022-09-16T22:00:35.788Z,9.69
2022-09-16T22:04:38.712Z,9.75
2022-09-16T22:08:48.733Z,9.75
2022-09-16T22:12:52.068Z,9.70
2022-09-16T22:16:54.919Z,9.76
2022-09-16T22:21:03.278Z,9.81
2022-09-16T22:25:08.256Z,9.76
2022-09-16T22:29:12.651Z,9.68
2022-09-16T22:33:15.387Z,9.68
2022-09-16T22:37:18.302Z,9.67
2022-09-16T22:41:22.988Z,9.71
2022-09-16T22:45:25.971Z,9.62
2022-09-16T22:49:28.846Z,9.61
2022-09-16T22:53:33.286Z,9.58
2022-09-16T22:57:37.372Z,9.54
2022-09-16T23:01:41.182Z,9.55
2022-09-16T23:05:44.077Z,9.50
2022-09-16T23:09:47.251Z,9.51
2022-09-16T23:13:52.993Z,9.54
2022-09-16T23:17:55.685Z,9.53
2022-09-16T23:21:58.495Z,9.59
2022-09-16T23:26:03.071Z,9.65
2022-09-16T23:30:08.512Z,9.65
2022-09-16T23:34:14.095Z,9.73
2022-09-16T23:38:16.828Z,9.77
2022-09-16T23:42:19.750Z,9.84
2022-09-16T23:46:25.751Z,9.85
2022-09-16T23:50:28.720Z,9.83
2022-09-16T23:54:31.620Z,9.80
2022-09-16T23:58:34.629Z,9.80
